createdAt,value
2023-06-01T00:00:50.129Z,101329.76
2023-06-01T00:03:23.371Z,101326.98
2023-06-01T00:05:36.153Z,101327.02
2023-06-01T00:07:49.216Z,101326.08
2023-06-01T00:10:02.345Z,101324.74
2023-06-01T00:12:15.830Z,101323.17
2023-06-01T00:14:28.943Z,101320.40
2023-06-01T00:16:42.114Z,101320.91
2023-06-01T00:18:55.397Z,101316.30
2023-06-01T00:21:08.286Z,101316.98
2023-06-01T00:23:22.192Z,101315.89
2023-06-01T00:25:34.778Z,101315.59
2023-06-01T00:27:47.291Z,101317.58
2023-06-01T00:29:59.920Z,101316.90
2023-06-01T00:32:13.891Z,101317.55
2023-06-01T00:34:26.968Z,101312.11
2023-06-01T00:36:39.888Z,101312.13
2023-06-01T00:38:53.321Z,101307.85
2023-06-01T00:41:05.952Z,101311.48
2023-06-01T00:43:18.535Z,101307.68
2023-06-01T00:45:31.501Z,101305.46
2023-06-01T00:47:47.466Z,101304.92
2023-06-01T00:50:00.223Z,101304.67
2023-06-01T00:52:14.251Z,101304.66
2023-06-01T00:54:27.513Z,101300.77
2023-06-01T00:56:40.322Z,101300.35
2023-06-01T00:58:53.654Z,101301.91
2023-06-01T01:01:06.673Z,101300.95
2023-06-01T01:03:19.707Z,101300.77
2023-06-01T01:05:32.711Z,101301.52
2023-06-01T01:07:55.436Z,101302.08
2023-06-01T01:10:13.874Z,101301.05
2023-06-01T01:12:31.513Z,101299.46
2023-06-01T01:14:50.706Z,101298.04
2023-06-01T01:17:13.372Z,101297.98
2023-06-01T01:19:44.973Z,101292.05
2023-06-01T01:22:10.083Z,101292.61
2023-06-01T01:24:47.967Z,101294.89
2023-06-01T01:27:19.418Z,101290.38
2023-06-01T01:29:34.904Z,101292.67
2023-06-01T01:31:50.054Z,101293.24
2023-06-01T01:34:03.645Z,101287.92
2023-06-01T01:36:19.374Z,101287.45
2023-06-01T01:38:32.349Z,101286.18
2023-06-01T01:40:44.986Z,101285.71
2023-06-01T01:42:59.148Z,101286.13
2023-06-01T01:45:13.822Z,101288.30
2023-06-01T01:47:40.526Z,101288.22
2023-06-01T01:49:57.774Z,101289.10
2023-06-01T01:52:16.749Z,101291.31
2023-06-01T01:54:32.049Z,101287.98
2023-06-01T01:56:44.741Z,101290.61
2023-06-01T01:58:58.242Z,101287.29
2023-06-01T02:01:12.106Z,101286.36
2023-06-01T02:03:25.347Z,101282.80
2023-06-01T02:05:38.608Z,101282.73
2023-06-01T02:07:51.297Z,101285.05
2023-06-01T02:10:04.063Z,101282.45
2023-06-01T02:12:17.455Z,101287.70
2023-06-01T02:14:30.457Z,101287.16
2023-06-01T02:16:43.618Z,101283.94
2023-06-01T02:18:59.799Z,101286.36
2023-06-01T02:21:12.893Z,101289.06
2023-06-01T02:23:25.688Z,101291.54
2023-06-01T02:25:39.233Z,101289.73
2023-06-01T02:27:51.875Z,101286.56
2023-06-01T02:30:04.904Z,101286.42
2023-06-01T02:32:17.750Z,101288.77
2023-06-01T02:34:30.380Z,101287.65
2023-06-01T02:36:43.689Z,101290.80
2023-06-01T02:38:57.300Z,101286.67
2023-06-01T02:41:10.177Z,101286.46
2023-06-01T02:43:23.230Z,101288.06
2023-06-01T02:45:36.015Z,101289.43
2023-06-01T02:47:48.612Z,101291.91
2023-06-01T02:50:01.533Z,101292.34
2023-06-01T02:52:15.613Z,101296.54
2023-06-01T02:54:28.748Z,101292.52
2023-06-01T02:56:44.465Z,101295.23
2023-06-01T02:58:56.870Z,101293.44
2023-06-01T03:01:14.885Z,101296.55
2023-06-01T03:03:27.565Z,101295.61
2023-06-01T03:05:42.175Z,101298.73
2023-06-01T03:08:18.904Z,101295.42
2023-06-01T03:10:31.577Z,101292.03
2023-06-01T03:12:50.549Z,101291.90
2023-06-01T03:15:03.541Z,101295.06
2023-06-01T03:17:16.054Z,101295.93
2023-06-01T03:19:28.981Z,101290.55
2023-06-01T03:21:44.142Z,101295.63
2023-06-01T03:23:56.917Z,101293.33
2023-06-01T03:26:10.583Z,101297.92
2023-06-01T03:28:23.467Z,101297.70
2023-06-01T03:30:36.112Z,101296.02
2023-06-01T03:32:49.749Z,101298.40
2023-06-01T03:35:02.981Z,101302.36
2023-06-01T03:37:16.411Z,101304.80
2023-06-01T03:39:29.360Z,101304.80
2023-06-01T03:41:43.486Z,101307.40
2023-06-01T03:43:56.225Z,101311.36
2023-06-01T03:46:08.913Z,101312.20
2023-06-01T03:48:21.494Z,101314.02
2023-06-01T03:50:34.307Z,101317.33
2023-06-01T03:52:47.627Z,101319.81
2023-06-01T03:55:00.795Z,101321.53
2023-06-01T03:57:34.459Z,101324.74
2023-06-01T03:59:48.681Z,101331.45
2023-06-01T04:02:01.982Z,101340.21
2023-06-01T04:04:18.737Z,101342.58
2023-06-01T04:06:31.684Z,101347.92
2023-06-01T04:08:50.597Z,101350.66
2023-06-01T04:11:03.631Z,101353.55
2023-06-01T04:13:16.516Z,101359.34
2023-06-01T04:15:29.250Z,101361.05
2023-06-01T04:17:44.987Z,101361.56
2023-06-01T04:19:58.460Z,101371.49
2023-06-01T04:22:12.576Z,101371.14
2023-06-01T04:24:25.830Z,101377.88
2023-06-01T04:26:38.511Z,101381.46
2023-06-01T04:28:51.948Z,101385.89
2023-06-01T04:31:05.368Z,101391.21
2023-06-01T04:33:18.562Z,101391.32
2023-06-01T04:35:31.645Z,101395.93
2023-06-01T04:37:46.323Z,101396.66
2023-06-01T04:39:58.827Z,101401.98
2023-06-01T04:42:15.779Z,101406.67
2023-06-01T04:44:28.621Z,101411.96
2023-06-01T04:46:42.247Z,101408.79
2023-06-01T04:48:55.440Z,101416.05
2023-06-01T04:51:09.355Z,101412.77
2023-06-01T04:53:21.742Z,101415.93
2023-06-01T04:55:35.706Z,101417.16
2023-06-01T04:57:48.271Z,101414.38
2023-06-01T05:00:02.811Z,101412.64
2023-06-01T05:02:16.145Z,101418.07
2023-06-01T05:04:28.760Z,101418.32
2023-06-01T05:06:41.722Z,101416.91
2023-06-01T05:08:54.600Z,101425.05
2023-06-01T05:11:13.044Z,101426.13
2023-06-01T05:13:25.604Z,101432.02
2023-06-01T05:15:38.314Z,101432.89
2023-06-01T05:17:51.356Z,101436.45
2023-06-01T05:20:07.681Z,101439.08
2023-06-01T05:22:21.066Z,101442.10
2023-06-01T05:24:33.989Z,101440.30
2023-06-01T05:26:47.814Z,101443.38
2023-06-01T05:29:00.584Z,101445.53
2023-06-01T05:31:14.083Z,101447.29
2023-06-01T05:33:33.360Z,101448.58
2023-06-01T05:35:46.305Z,101454.25
2023-06-01T05:38:03.001Z,101452.13
2023-06-01T05:40:17.687Z,101453.64
2023-06-01T05:42:31.679Z,101452.73
2023-06-01T05:44:44.291Z,101450.45
2023-06-01T05:46:57.833Z,101449.19
2023-06-01T05:49:10.883Z,101448.16
2023-06-01T05:51:24.779Z,101448.59
2023-06-01T05:53:38.471Z,101445.90
2023-06-01T05:55:52.862Z,101449.56
2023-06-01T05:58:06.539Z,101448.99
2023-06-01T06:00:21.175Z,101448.36
2023-06-01T06:02:34.196Z,101452.12
2023-06-01T06:04:47.922Z,101448.84
2023-06-01T06:07:00.538Z,101453.91
2023-06-01T06:09:15.628Z,101447.12
2023-06-01T06:11:28.289Z,101450.50
2023-06-01T06:13:42.277Z,101452.25
2023-06-01T06:15:55.933Z,101448.31
2023-06-01T06:18:09.417Z,101447.27
2023-06-01T06:20:24.167Z,101447.59
2023-06-01T06:22:37.231Z,101446.56
2023-06-01T06:24:49.833Z,101444.41
2023-06-01T06:27:04.061Z,101447.66
2023-06-01T06:29:17.151Z,101445.90
2023-06-01T06:31:29.717Z,101443.14
2023-06-01T06:33:42.391Z,101445.95
2023-06-01T06:35:55.437Z,101447.64
2023-06-01T06:38:08.469Z,101451.80
2023-06-01T06:40:22.423Z,101455.88
2023-06-01T06:42:35.209Z,101456.79
2023-06-01T06:44:48.105Z,101457.44
2023-06-01T06:47:03.122Z,101455.95
2023-06-01T06:49:16.114Z,101456.02
2023-06-01T06:51:28.745Z,101454.19
2023-06-01T06:53:41.193Z,101455.30
2023-06-01T06:55:53.851Z,101457.25
2023-06-01T06:58:06.232Z,101457.15
2023-06-01T07:00:20.931Z,101458.55
2023-06-01T07:02:34.019Z,101457.05
2023-06-01T07:04:46.902Z,101455.02
2023-06-01T07:06:59.356Z,101455.58
2023-06-01T07:09:12.135Z,101455.59
2023-06-01T07:11:25.793Z,101457.08
2023-06-01T07:13:38.487Z,101460.89
2023-06-01T07:15:51.086Z,101459.47
2023-06-01T07:18:03.803Z,101463.40
2023-06-01T07:20:19.094Z,101464.96
2023-06-01T07:22:31.849Z,101462.11
2023-06-01T07:24:44.301Z,101463.58
2023-06-01T07:26:57.735Z,101461.84
2023-06-01T07:29:11.150Z,101465.59
2023-06-01T07:31:23.654Z,101462.27
2023-06-01T07:33:38.226Z,101464.98
2023-06-01T07:35:55.155Z,101462.25
2023-06-01T07:38:09.604Z,101461.81
2023-06-01T07:40:22.410Z,101461.09
2023-06-01T07:42:35.567Z,101461.35
2023-06-01T07:44:49.506Z,101460.57
2023-06-01T07:47:02.214Z,101460.56
2023-06-01T07:49:16.005Z,101458.42
2023-06-01T07:51:28.685Z,101457.10
2023-06-01T07:53:42.135Z,101454.25
2023-06-01T07:55:54.667Z,101455.73
2023-06-01T07:58:09.481Z,101453.35
2023-06-01T08:00:24.504Z,101456.43
2023-06-01T08:02:37.115Z,101456.39
2023-06-01T08:04:51.139Z,101449.48
2023-06-01T08:07:05.269Z,101455.15
2023-06-01T08:09:17.951Z,101452.89
2023-06-01T08:11:31.732Z,101453.19
2023-06-01T08:13:47.818Z,101440.87
2023-06-01T08:16:01.915Z,101448.70
2023-06-01T08:18:15.089Z,101448.89
2023-06-01T08:20:28.732Z,101448.41
2023-06-01T08:22:41.456Z,101450.38
2023-06-01T08:24:55.167Z,101450.94
2023-06-01T08:27:20.381Z,101451.36
2023-06-01T08:29:42.474Z,101449.48
2023-06-01T08:31:56.058Z,101450.65
2023-06-01T08:34:09.220Z,101450.44
2023-06-01T08:36:23.036Z,101445.73
2023-06-01T08:38:35.822Z,101448.23
2023-06-01T08:40:48.958Z,101444.43
2023-06-01T08:43:09.240Z,101443.79
2023-06-01T08:45:23.530Z,101449.00
2023-06-01T08:47:37.020Z,101455.82
2023-06-01T08:49:51.022Z,101450.77
2023-06-01T08:52:04.820Z,101456.15
2023-06-01T08:54:17.721Z,101451.36
2023-06-01T08:56:31.574Z,101453.11
2023-06-01T08:58:45.602Z,101452.81
2023-06-01T09:00:59.406Z,101450.44
2023-06-01T09:03:12.344Z,101444.13
2023-06-01T09:05:25.898Z,101447.30
2023-06-01T09:07:38.408Z,101448.99
2023-06-01T09:09:51.793Z,101451.50
2023-06-01T09:12:26.111Z,101451.60
2023-06-01T09:14:38.641Z,101454.87
2023-06-01T09:16:51.906Z,101452.30
2023-06-01T09:19:04.948Z,101454.70
2023-06-01T09:21:21.120Z,101455.10
2023-06-01T09:23:34.198Z,101455.97
2023-06-01T09:25:47.074Z,101448.39
2023-06-01T09:28:01.036Z,101450.61
2023-06-01T09:30:15.264Z,101452.11
2023-06-01T09:32:28.350Z,101458.39
2023-06-01T09:34:51.182Z,101454.27
2023-06-01T09:37:09.340Z,101454.97
2023-06-01T09:39:23.531Z,101457.20
2023-06-01T09:41:51.358Z,101458.55
2023-06-01T09:44:04.355Z,101457.90
2023-06-01T09:46:17.614Z,101457.84
2023-06-01T09:48:31.763Z,101457.52
2023-06-01T09:50:45.107Z,101454.19
2023-06-01T09:53:04.636Z,101455.52
2023-06-01T09:55:17.810Z,101452.95
2023-06-01T09:57:32.191Z,101454.73
2023-06-01T09:59:49.156Z,101453.52
2023-06-01T10:02:04.721Z,101453.20
2023-06-01T10:04:22.865Z,101454.50
2023-06-01T10:06:39.881Z,101456.39
2023-06-01T10:08:54.306Z,101453.77
2023-06-01T10:11:07.296Z,101455.98
2023-06-01T10:13:20.108Z,101461.36
2023-06-01T10:15:33.262Z,101465.40
2023-06-01T10:17:47.214Z,101465.77
2023-06-01T10:20:01.968Z,101462.39
2023-06-01T10:22:15.540Z,101466.21
2023-06-01T10:24:28.361Z,101468.92
2023-06-01T10:26:46.471Z,101464.48
2023-06-01T10:29:00.020Z,101459.96
2023-06-01T10:31:39.536Z,101461.27
2023-06-01T10:34:02.503Z,101461.55
2023-06-01T10:36:15.299Z,101466.75
2023-06-01T10:38:31.291Z,101463.43
2023-06-01T10:40:44.948Z,101468.56
2023-06-01T10:42:57.675Z,101465.63
2023-06-01T10:45:24.763Z,101469.00
2023-06-01T10:47:53.288Z,101467.21
2023-06-01T10:50:23.926Z,101463.80
2023-06-01T10:52:38.027Z,101467.77
2023-06-01T10:54:51.315Z,101465.28
2023-06-01T10:57:29.985Z,101466.39
2023-06-01T10:59:42.768Z,101465.40
2023-06-01T11:01:56.242Z,101462.59
2023-06-01T11:04:09.757Z,101463.61
2023-06-01T11:06:37.882Z,101458.52
2023-06-01T11:09:01.708Z,101458.74
2023-06-01T11:11:14.434Z,101454.42
2023-06-01T11:13:29.522Z,101453.92
2023-06-01T11:15:43.723Z,101459.92
2023-06-01T11:17:58.485Z,101459.43
2023-06-01T11:20:15.027Z,101460.72
2023-06-01T11:22:30.474Z,101460.80
2023-06-01T11:24:44.478Z,101460.19
2023-06-01T11:26:57.420Z,101457.05
2023-06-01T11:29:18.838Z,101454.16
2023-06-01T11:31:38.046Z,101456.99
2023-06-01T11:33:59.197Z,101458.23
2023-06-01T11:36:12.616Z,101459.58
2023-06-01T11:38:25.214Z,101463.16
2023-06-01T11:40:40.231Z,101461.44
2023-06-01T11:42:53.185Z,101460.80
2023-06-01T11:45:07.233Z,101463.08
2023-06-01T11:47:20.774Z,101465.92
2023-06-01T11:49:34.218Z,101466.09
2023-06-01T11:51:49.352Z,101463.16
2023-06-01T11:54:04.816Z,101469.39
2023-06-01T11:56:17.469Z,101467.36
2023-06-01T11:58:31.958Z,101463.58
2023-06-01T12:00:48.599Z,101467.77
2023-06-01T12:03:13.892Z,101464.29
2023-06-01T12:05:26.829Z,101462.47
2023-06-01T12:07:50.270Z,101463.85
2023-06-01T12:10:03.992Z,101465.59
2023-06-01T12:12:18.432Z,101466.12
2023-06-01T12:14:31.871Z,101465.04
2023-06-01T12:17:03.249Z,101464.77
2023-06-01T12:19:19.266Z,101469.12
2023-06-01T12:21:31.998Z,101473.88
2023-06-01T12:23:45.829Z,101475.34
2023-06-01T12:26:01.187Z,101480.19
2023-06-01T12:28:14.599Z,101475.55
2023-06-01T12:30:30.613Z,101477.69
2023-06-01T12:32:47.481Z,101476.84
2023-06-01T12:35:14.555Z,101475.92
2023-06-01T12:37:28.710Z,101476.92
2023-06-01T12:39:43.665Z,101479.56
2023-06-01T12:41:56.890Z,101482.73
2023-06-01T12:44:10.169Z,101481.48
2023-06-01T12:46:27.051Z,101481.33
2023-06-01T12:48:40.972Z,101483.39
2023-06-01T12:50:53.715Z,101481.34
2023-06-01T12:53:06.837Z,101479.74
2023-06-01T12:55:20.727Z,101481.64
2023-06-01T12:57:35.562Z,101481.10
2023-06-01T12:59:48.393Z,101485.44
2023-06-01T13:02:01.108Z,101489.55
2023-06-01T13:04:13.924Z,101494.06
2023-06-01T13:06:26.786Z,101494.84
2023-06-01T13:08:40.574Z,101492.88
2023-06-01T13:10:53.934Z,101497.31
2023-06-01T13:13:06.882Z,101501.23
2023-06-01T13:15:20.575Z,101505.61
2023-06-01T13:17:33.398Z,101510.98
2023-06-01T13:19:46.497Z,101512.17
2023-06-01T13:21:59.793Z,101516.41
2023-06-01T13:24:12.998Z,101513.33
2023-06-01T13:26:27.477Z,101515.52
2023-06-01T13:28:40.607Z,101514.52
2023-06-01T13:30:53.137Z,101521.98
2023-06-01T13:33:06.376Z,101515.89
2023-06-01T13:35:21.049Z,101517.06
2023-06-01T13:37:33.803Z,101516.83
2023-06-01T13:39:46.356Z,101519.27
2023-06-01T13:42:03.143Z,101518.91
2023-06-01T13:44:17.148Z,101518.16
2023-06-01T13:46:30.006Z,101516.67
2023-06-01T13:48:42.799Z,101517.21
2023-06-01T13:50:56.017Z,101517.14
2023-06-01T13:53:09.179Z,101517.91
2023-06-01T13:55:23.666Z,101517.52
2023-06-01T13:57:37.518Z,101518.64
2023-06-01T13:59:50.539Z,101517.69
2023-06-01T14:02:03.512Z,101521.31
2023-06-01T14:04:17.284Z,101521.09
2023-06-01T14:06:29.835Z,101521.75
2023-06-01T14:08:42.775Z,101518.91
2023-06-01T14:10:55.968Z,101519.30
2023-06-01T14:13:09.565Z,101519.36
2023-06-01T14:15:23.048Z,101517.92
2023-06-01T14:17:36.569Z,101518.34
2023-06-01T14:19:50.190Z,101517.29
2023-06-01T14:22:02.827Z,101515.91
2023-06-01T14:24:15.563Z,101517.71
2023-06-01T14:26:28.537Z,101518.77
2023-06-01T14:28:43.403Z,101515.04
2023-06-01T14:30:56.343Z,101513.00
2023-06-01T14:33:09.323Z,101516.29
2023-06-01T14:35:22.969Z,101515.55
2023-06-01T14:37:48.154Z,101523.04
2023-06-01T14:40:01.526Z,101521.36
2023-06-01T14:42:14.799Z,101525.77
2023-06-01T14:44:27.356Z,101527.22
2023-06-01T14:46:40.485Z,101523.33
2023-06-01T14:48:53.362Z,101522.92
2023-06-01T14:51:06.184Z,101526.16
2023-06-01T14:53:20.062Z,101524.46
2023-06-01T14:55:33.200Z,101531.92
2023-06-01T14:57:47.333Z,101534.86
2023-06-01T15:00:04.601Z,101537.72
2023-06-01T15:02:17.834Z,101538.56
2023-06-01T15:04:30.384Z,101539.95
2023-06-01T15:06:44.065Z,101540.20
2023-06-01T15:08:56.859Z,101538.95
2023-06-01T15:11:11.645Z,101541.51
2023-06-01T15:13:25.462Z,101547.19
2023-06-01T15:15:38.835Z,101547.38
2023-06-01T15:17:51.725Z,101547.02
2023-06-01T15:20:04.823Z,101545.13
2023-06-01T15:22:18.249Z,101541.65
2023-06-01T15:24:30.826Z,101542.84
2023-06-01T15:26:43.556Z,101543.04
2023-06-01T15:28:56.381Z,101541.90
2023-06-01T15:31:09.659Z,101544.78
2023-06-01T15:33:22.388Z,101545.25
2023-06-01T15:35:35.244Z,101547.89
2023-06-01T15:37:47.841Z,101553.33
2023-06-01T15:40:01.720Z,101550.44
2023-06-01T15:42:15.516Z,101560.62
2023-06-01T15:44:29.471Z,101561.29
2023-06-01T15:46:42.684Z,101560.19
2023-06-01T15:48:55.365Z,101561.55
2023-06-01T15:51:09.231Z,101564.41
2023-06-01T15:53:22.545Z,101561.86
2023-06-01T15:55:35.479Z,101560.62
2023-06-01T15:57:48.163Z,101560.73
2023-06-01T16:00:01.003Z,101560.66
2023-06-01T16:02:24.466Z,101556.15
2023-06-01T16:04:37.422Z,101553.16
2023-06-01T16:06:50.538Z,101544.67
2023-06-01T16:09:03.073Z,101544.71
2023-06-01T16:11:15.714Z,101547.73
2023-06-01T16:13:28.754Z,101541.99
2023-06-01T16:15:41.754Z,101547.02
2023-06-01T16:17:54.243Z,101543.29
2023-06-01T16:20:08.395Z,101548.21
2023-06-01T16:22:21.259Z,101547.30
2023-06-01T16:24:34.088Z,101548.55
2023-06-01T16:26:47.012Z,101545.26
2023-06-01T16:28:59.886Z,101537.77
2023-06-01T16:31:12.861Z,101533.58
2023-06-01T16:33:25.919Z,101533.09
2023-06-01T16:35:40.341Z,101534.50
2023-06-01T16:37:54.388Z,101539.36
2023-06-01T16:40:07.730Z,101536.20
2023-06-01T16:42:21.095Z,101532.09
2023-06-01T16:44:33.869Z,101530.85
2023-06-01T16:46:47.090Z,101533.17
2023-06-01T16:49:00.537Z,101528.16
2023-06-01T16:51:13.430Z,101526.41
2023-06-01T16:53:26.143Z,101529.05
2023-06-01T16:55:38.952Z,101527.05
2023-06-01T16:57:52.122Z,101527.80
2023-06-01T17:00:11.402Z,101527.27
2023-06-01T17:05:04.579Z,101526.38
2023-06-01T17:07:37.981Z,101524.36
2023-06-01T17:09:51.999Z,101524.35
2023-06-01T17:12:04.996Z,101525.46
2023-06-01T17:14:18.505Z,101523.98
2023-06-01T17:16:31.697Z,101521.37
2023-06-01T17:18:44.738Z,101520.29
2023-06-01T17:21:08.812Z,101521.98
2023-06-01T17:23:41.579Z,101522.96
2023-06-01T17:25:58.460Z,101519.73
2023-06-01T17:28:31.693Z,101518.02
2023-06-01T17:30:55.008Z,101523.44
2023-06-01T17:33:08.341Z,101523.71
2023-06-01T17:35:21.332Z,101522.17
2023-06-01T17:37:37.735Z,101522.37
2023-06-01T17:39:50.324Z,101521.09
2023-06-01T17:42:03.044Z,101517.47
2023-06-01T17:44:17.966Z,101511.59
2023-06-01T17:46:31.499Z,101507.89
2023-06-01T17:48:44.848Z,101502.93
2023-06-01T17:51:07.617Z,101500.66
2023-06-01T17:53:39.908Z,101502.13
2023-06-01T17:55:56.757Z,101503.84
2023-06-01T17:58:20.113Z,101503.13
2023-06-01T18:00:43.353Z,101502.61
2023-06-01T18:03:06.905Z,101498.05
2023-06-01T18:05:20.117Z,101496.88
2023-06-01T18:07:53.152Z,101495.73
2023-06-01T18:10:12.152Z,101497.46
2023-06-01T18:12:36.547Z,101490.70
2023-06-01T18:14:49.637Z,101488.84
2023-06-01T18:17:02.847Z,101491.35
2023-06-01T18:19:18.833Z,101494.70
2023-06-01T18:21:32.362Z,101491.65
2023-06-01T18:23:48.881Z,101485.91
2023-06-01T18:26:01.430Z,101483.36
2023-06-01T18:28:17.735Z,101474.23
2023-06-01T18:30:34.716Z,101475.91
2023-06-01T18:32:47.648Z,101477.20
2023-06-01T18:35:03.116Z,101470.55
2023-06-01T18:37:19.179Z,101466.13
2023-06-01T18:39:42.139Z,101463.79
2023-06-01T18:42:05.805Z,101459.07
2023-06-01T18:44:28.661Z,101450.44
2023-06-01T18:47:01.760Z,101454.76
2023-06-01T18:49:26.018Z,101451.75
2023-06-01T18:51:59.095Z,101452.42
2023-06-01T18:54:23.560Z,101449.85
2023-06-01T18:56:56.646Z,101447.03
2023-06-01T18:59:30.382Z,101442.84
2023-06-01T19:01:46.476Z,101443.20
2023-06-01T19:04:02.223Z,101439.34
2023-06-01T19:06:16.242Z,101436.48
2023-06-01T19:08:34.733Z,101433.47
2023-06-01T19:11:05.117Z,101429.72
2023-06-01T19:13:19.539Z,101430.41
2023-06-01T19:15:35.921Z,101424.91
2023-06-01T19:17:52.843Z,101425.32
2023-06-01T19:20:53.056Z,101419.09
2023-06-01T19:23:12.025Z,101417.41
2023-06-01T19:25:44.217Z,101414.75
2023-06-01T19:28:00.379Z,101412.66
2023-06-01T19:30:17.961Z,101410.86
2023-06-01T19:32:51.068Z,101404.50
2023-06-01T19:35:24.543Z,101398.73
2023-06-01T19:37:40.673Z,101395.80
2023-06-01T19:39:58.406Z,101395.91
2023-06-01T19:42:43.934Z,101389.82
2023-06-01T19:45:08.405Z,101385.26
2023-06-01T19:47:33.992Z,101384.55
2023-06-01T19:49:56.232Z,101383.64
2023-06-01T19:52:43.964Z,101380.01
2023-06-01T19:55:01.386Z,101373.74
2023-06-01T19:57:14.840Z,101379.23
2023-06-01T19:59:48.032Z,101373.52
2023-06-01T20:02:48.618Z,101370.42
2023-06-01T20:05:15.912Z,101365.80
2023-06-01T20:07:28.824Z,101359.92
2023-06-01T20:09:42.037Z,101359.55
2023-06-01T20:12:05.013Z,101349.41
2023-06-01T20:14:34.280Z,101348.03
2023-06-01T20:17:08.279Z,101343.94
2023-06-01T20:19:41.358Z,101340.40
2023-06-01T20:22:15.263Z,101340.06
2023-06-01T20:24:34.379Z,101336.08
2023-06-01T20:26:50.557Z,101334.72
2023-06-01T20:29:18.658Z,101335.11
2023-06-01T20:31:42.370Z,101333.43
2023-06-01T20:34:13.277Z,101329.20
2023-06-01T20:36:33.005Z,101330.39
2023-06-01T20:38:55.985Z,101325.07
2023-06-01T20:41:24.646Z,101319.65
2023-06-01T20:43:50.113Z,101319.31
2023-06-01T20:46:26.254Z,101313.61
2023-06-01T20:48:47.680Z,101307.67
2023-06-01T20:51:06.507Z,101307.88
2023-06-01T20:53:39.060Z,101302.34
2023-06-01T20:55:55.209Z,101298.13
2023-06-01T20:58:12.278Z,101296.74
2023-06-01T21:00:36.121Z,101295.02
2023-06-01T21:02:55.318Z,101297.08
2023-06-01T21:05:13.290Z,101292.17
2023-06-01T21:07:39.981Z,101287.80
2023-06-01T21:10:14.173Z,101288.56
2023-06-01T21:12:50.205Z,101288.39
2023-06-01T21:15:06.438Z,101286.09
2023-06-01T21:17:19.689Z,101283.41
2023-06-01T21:19:52.641Z,101286.45
2023-06-01T21:22:09.645Z,101278.84
2023-06-01T21:24:32.791Z,101275.05
2023-06-01T21:27:05.835Z,101269.16
2023-06-01T21:29:18.777Z,101263.80
2023-06-01T21:31:34.500Z,101261.98
2023-06-01T21:33:48.521Z,101260.13
2023-06-01T21:36:12.287Z,101256.52
2023-06-01T21:38:26.078Z,101252.87
2023-06-01T21:40:42.359Z,101257.21
2023-06-01T21:43:15.290Z,101255.22
2023-06-01T21:45:39.493Z,101250.66
2023-06-01T21:47:52.840Z,101244.23
2023-06-01T21:50:26.886Z,101238.90
2023-06-01T21:52:42.860Z,101242.72
2023-06-01T21:54:59.612Z,101229.98
2023-06-01T21:57:12.771Z,101231.67
2023-06-01T21:59:45.918Z,101230.54
2023-06-01T22:02:19.470Z,101229.68
2023-06-01T22:04:35.820Z,101229.96
2023-06-01T22:07:10.534Z,101221.88
2023-06-01T22:09:34.301Z,101219.11
2023-06-01T22:12:07.706Z,101220.83
2023-06-01T22:14:30.380Z,101218.35
2023-06-01T22:16:55.708Z,101213.90
2023-06-01T22:19:19.303Z,101207.73
2023-06-01T22:21:42.804Z,101203.89
2023-06-01T22:23:56.101Z,101200.14
2023-06-01T22:26:19.670Z,101199.17
2023-06-01T22:28:32.629Z,101193.81
2023-06-01T22:30:45.853Z,101188.96
2023-06-01T22:32:59.444Z,101187.73
2023-06-01T22:35:16.790Z,101188.40
2023-06-01T22:37:29.989Z,101180.33
2023-06-01T22:40:02.807Z,101181.19
2023-06-01T22:42:19.131Z,101178.70
2023-06-01T22:44:33.120Z,101174.27
2023-06-01T22:46:46.178Z,101170.77
2023-06-01T22:49:11.978Z,101166.53
2023-06-01T22:51:44.555Z,101167.63
2023-06-01T22:54:09.157Z,101167.36
2023-06-01T22:56:32.470Z,101168.84
2023-06-01T22:58:45.280Z,101165.13
2023-06-01T23:00:58.067Z,101161.44
2023-06-01T23:03:25.676Z,101162.14
2023-06-01T23:05:41.920Z,101161.23
2023-06-01T23:08:21.767Z,101152.58
2023-06-01T23:10:51.642Z,101146.33
2023-06-01T23:13:16.623Z,101152.81
2023-06-01T23:15:51.335Z,101152.98
2023-06-01T23:18:05.356Z,101154.48
2023-06-01T23:20:18.998Z,101147.34
2023-06-01T23:22:42.287Z,101146.85
2023-06-01T23:24:59.487Z,101146.20
2023-06-01T23:27:19.978Z,101141.14
2023-06-01T23:29:53.727Z,101144.20
2023-06-01T23:32:16.928Z,101144.66
2023-06-01T23:34:39.377Z,101146.83
2023-06-01T23:36:54.877Z,101144.20
2023-06-01T23:39:17.785Z,101141.42
2023-06-01T23:41:34.661Z,101141.19
2023-06-01T23:44:07.877Z,101141.34
2023-06-01T23:46:24.250Z,101142.08
2023-06-01T23:48:58.097Z,101140.27
2023-06-01T23:51:10.953Z,101143.34
2023-06-01T23:53:23.915Z,101138.70
2023-06-01T23:55:37.730Z,101135.84
2023-06-01T23:57:50.990Z,101137.15
